sensor_id;sensor_type;location;lat;lon;timestamp;temperature;humidity
81951;DHT22;71452;52.562;5.642;2023-09-30T00:00:34;14.30;71.20
81951;DHT22;71452;52.562;5.642;2023-09-30T00:03:03;14.30;71.20
81951;DHT22;71452;52.562;5.642;2023-09-30T00:05:32;14.20;71.30
81951;DHT22;71452;52.562;5.642;2023-09-30T00:08:02;14.20;71.40
81951;DHT22;71452;52.562;5.642;2023-09-30T00:10:33;14.20;71.40
81951;DHT22;71452;52.562;5.642;2023-09-30T00:13:02;14.20;71.40
81951;DHT22;71452;52.562;5.642;2023-09-30T00:15:32;14.20;71.50
81951;DHT22;71452;52.562;5.642;2023-09-30T00:18:02;14.20;71.50
81951;DHT22;71452;52.562;5.642;2023-09-30T00:20:31;14.10;71.60
81951;DHT22;71452;52.562;5.642;2023-09-30T00:23:00;14.10;71.60
81951;DHT22;71452;52.562;5.642;2023-09-30T00:25:29;14.10;71.60
81951;DHT22;71452;52.562;5.642;2023-09-30T00:28:01;14.10;71.50
81951;DHT22;71452;52.562;5.642;2023-09-30T00:30:30;14.10;71.60
81951;DHT22;71452;52.562;5.642;2023-09-30T00:32:59;14.10;71.60
81951;DHT22;71452;52.562;5.642;2023-09-30T00:35:31;14.10;71.70
81951;DHT22;71452;52.562;5.642;2023-09-30T00:38:01;14.10;71.80
81951;DHT22;71452;52.562;5.642;2023-09-30T00:40:30;14.10;71.90
81951;DHT22;71452;52.562;5.642;2023-09-30T00:43:04;14.10;71.80
81951;DHT22;71452;52.562;5.642;2023-09-30T00:45:33;14.10;71.90
81951;DHT22;71452;52.562;5.642;2023-09-30T00:48:04;14.10;71.90
81951;DHT22;71452;52.562;5.642;2023-09-30T00:50:34;14.10;71.90
81951;DHT22;71452;52.562;5.642;2023-09-30T00:53:04;14.10;72.00
81951;DHT22;71452;52.562;5.642;2023-09-30T00:55:33;14.10;71.90
81951;DHT22;71452;52.562;5.642;2023-09-30T00:58:06;14.10;71.80
81951;DHT22;71452;52.562;5.642;2023-09-30T01:00:35;14.10;71.90
81951;DHT22;71452;52.562;5.642;2023-09-30T01:03:05;14.10;71.80
81951;DHT22;71452;52.562;5.642;2023-09-30T01:05:35;14.10;71.80
81951;DHT22;71452;52.562;5.642;2023-09-30T01:08:05;14.10;71.90
81951;DHT22;71452;52.562;5.642;2023-09-30T01:10:34;14.10;71.70
81951;DHT22;71452;52.562;5.642;2023-09-30T01:13:06;14.10;71.70
81951;DHT22;71452;52.562;5.642;2023-09-30T01:15:35;14.10;71.80
81951;DHT22;71452;52.562;5.642;2023-09-30T01:18:05;14.10;71.70
81951;DHT22;71452;52.562;5.642;2023-09-30T01:20:34;14.10;71.70
81951;DHT22;71452;52.562;5.642;2023-09-30T01:23:06;14.10;71.60
81951;DHT22;71452;52.562;5.642;2023-09-30T01:25:38;14.00;71.60
81951;DHT22;71452;52.562;5.642;2023-09-30T01:28:10;14.00;71.60
81951;DHT22;71452;52.562;5.642;2023-09-30T01:30:43;14.00;71.70
81951;DHT22;71452;52.562;5.642;2023-09-30T01:33:12;13.90;71.60
81951;DHT22;71452;52.562;5.642;2023-09-30T01:35:42;13.90;71.60
81951;DHT22;71452;52.562;5.642;2023-09-30T01:38:14;13.90;71.70
81951;DHT22;71452;52.562;5.642;2023-09-30T01:40:43;13.90;71.70
81951;DHT22;71452;52.562;5.642;2023-09-30T01:43:12;13.90;71.80
81951;DHT22;71452;52.562;5.642;2023-09-30T01:45:42;13.90;71.90
81951;DHT22;71452;52.562;5.642;2023-09-30T01:48:12;13.90;71.90
81951;DHT22;71452;52.562;5.642;2023-09-30T01:50:41;13.80;71.90
81951;DHT22;71452;52.562;5.642;2023-09-30T01:53:10;13.80;71.90
81951;DHT22;71452;52.562;5.642;2023-09-30T01:55:41;13.80;71.90
81951;DHT22;71452;52.562;5.642;2023-09-30T01:58:10;13.70;72.00
81951;DHT22;71452;52.562;5.642;2023-09-30T02:00:39;13.80;72.10
81951;DHT22;71452;52.562;5.642;2023-09-30T02:03:08;13.70;72.10
81951;DHT22;71452;52.562;5.642;2023-09-30T02:05:38;13.70;72.10
81951;DHT22;71452;52.562;5.642;2023-09-30T02:08:07;13.70;72.10
81951;DHT22;71452;52.562;5.642;2023-09-30T02:10:36;13.70;72.20
81951;DHT22;71452;52.562;5.642;2023-09-30T02:13:09;13.70;72.20
81951;DHT22;71452;52.562;5.642;2023-09-30T02:15:40;13.70;72.10
81951;DHT22;71452;52.562;5.642;2023-09-30T02:18:09;13.70;72.20
81951;DHT22;71452;52.562;5.642;2023-09-30T02:20:39;13.60;72.30
81951;DHT22;71452;52.562;5.642;2023-09-30T02:23:10;13.70;72.30
81951;DHT22;71452;52.562;5.642;2023-09-30T02:25:39;13.60;72.20
81951;DHT22;71452;52.562;5.642;2023-09-30T02:28:11;13.60;72.30
81951;DHT22;71452;52.562;5.642;2023-09-30T02:30:41;13.60;72.30
81951;DHT22;71452;52.562;5.642;2023-09-30T02:33:10;13.60;72.40
81951;DHT22;71452;52.562;5.642;2023-09-30T02:35:43;13.60;72.40
81951;DHT22;71452;52.562;5.642;2023-09-30T02:38:12;13.60;72.40
81951;DHT22;71452;52.562;5.642;2023-09-30T02:40:44;13.60;72.40
81951;DHT22;71452;52.562;5.642;2023-09-30T02:43:17;13.60;72.50
81951;DHT22;71452;52.562;5.642;2023-09-30T02:45:47;13.60;72.50
81951;DHT22;71452;52.562;5.642;2023-09-30T02:48:16;13.60;72.40
81951;DHT22;71452;52.562;5.642;2023-09-30T02:50:46;13.60;72.50
81951;DHT22;71452;52.562;5.642;2023-09-30T02:53:15;13.50;72.40
81951;DHT22;71452;52.562;5.642;2023-09-30T02:55:44;13.60;72.50
81951;DHT22;71452;52.562;5.642;2023-09-30T02:58:13;13.50;72.50
81951;DHT22;71452;52.562;5.642;2023-09-30T03:00:47;13.50;72.50
81951;DHT22;71452;52.562;5.642;2023-09-30T03:03:16;13.50;72.40
81951;DHT22;71452;52.562;5.642;2023-09-30T03:05:46;13.50;72.40
81951;DHT22;71452;52.562;5.642;2023-09-30T03:08:16;13.50;72.40
81951;DHT22;71452;52.562;5.642;2023-09-30T03:10:45;13.50;72.50
81951;DHT22;71452;52.562;5.642;2023-09-30T03:13:14;13.50;72.50
81951;DHT22;71452;52.562;5.642;2023-09-30T03:15:47;13.50;72.50
81951;DHT22;71452;52.562;5.642;2023-09-30T03:18:17;13.50;72.50
81951;DHT22;71452;52.562;5.642;2023-09-30T03:20:49;13.50;72.50
81951;DHT22;71452;52.562;5.642;2023-09-30T03:23:22;13.50;72.50
81951;DHT22;71452;52.562;5.642;2023-09-30T03:25:56;13.40;72.50
81951;DHT22;71452;52.562;5.642;2023-09-30T03:28:26;13.40;72.70
81951;DHT22;71452;52.562;5.642;2023-09-30T03:30:58;13.50;72.70
81951;DHT22;71452;52.562;5.642;2023-09-30T03:33:27;13.50;72.70
81951;DHT22;71452;52.562;5.642;2023-09-30T03:35:56;13.50;72.50
81951;DHT22;71452;52.562;5.642;2023-09-30T03:38:25;13.40;72.60
81951;DHT22;71452;52.562;5.642;2023-09-30T03:40:55;13.40;72.80
81951;DHT22;71452;52.562;5.642;2023-09-30T03:43:25;13.40;72.80
81951;DHT22;71452;52.562;5.642;2023-09-30T03:45:57;13.40;72.80
81951;DHT22;71452;52.562;5.642;2023-09-30T03:48:26;13.40;72.80
81951;DHT22;71452;52.562;5.642;2023-09-30T03:50:55;13.40;72.80
81951;DHT22;71452;52.562;5.642;2023-09-30T03:53:24;13.40;72.80
81951;DHT22;71452;52.562;5.642;2023-09-30T03:55:54;13.40;72.90
81951;DHT22;71452;52.562;5.642;2023-09-30T03:58:23;13.40;72.90
81951;DHT22;71452;52.562;5.642;2023-09-30T04:00:53;13.40;73.00
81951;DHT22;71452;52.562;5.642;2023-09-30T04:03:25;13.50;73.00
81951;DHT22;71452;52.562;5.642;2023-09-30T04:05:55;13.50;73.00
81951;DHT22;71452;52.562;5.642;2023-09-30T04:08:24;13.50;72.90
81951;DHT22;71452;52.562;5.642;2023-09-30T04:10:53;13.50;73.00
81951;DHT22;71452;52.562;5.642;2023-09-30T04:13:22;13.50;73.00
81951;DHT22;71452;52.562;5.642;2023-09-30T04:15:51;13.50;73.00
81951;DHT22;71452;52.562;5.642;2023-09-30T04:18:20;13.50;73.20
81951;DHT22;71452;52.562;5.642;2023-09-30T04:20:54;13.50;73.20
81951;DHT22;71452;52.562;5.642;2023-09-30T04:23:23;13.50;73.20
81951;DHT22;71452;52.562;5.642;2023-09-30T04:25:53;13.50;73.20
81951;DHT22;71452;52.562;5.642;2023-09-30T04:28:25;13.50;73.20
81951;DHT22;71452;52.562;5.642;2023-09-30T04:30:55;13.50;73.10
81951;DHT22;71452;52.562;5.642;2023-09-30T04:33:24;13.50;73.10
81951;DHT22;71452;52.562;5.642;2023-09-30T04:35:55;13.50;73.20
81951;DHT22;71452;52.562;5.642;2023-09-30T04:38:24;13.50;73.20
81951;DHT22;71452;52.562;5.642;2023-09-30T04:40:53;13.50;73.20
81951;DHT22;71452;52.562;5.642;2023-09-30T04:43:24;13.50;73.30
81951;DHT22;71452;52.562;5.642;2023-09-30T04:45:55;13.50;73.30
81951;DHT22;71452;52.562;5.642;2023-09-30T04:48:24;13.40;73.30
81951;DHT22;71452;52.562;5.642;2023-09-30T04:50:55;13.40;73.40
81951;DHT22;71452;52.562;5.642;2023-09-30T04:53:24;13.30;73.40
81951;DHT22;71452;52.562;5.642;2023-09-30T04:55:55;13.30;73.50
81951;DHT22;71452;52.562;5.642;2023-09-30T04:58:24;13.40;73.60
81951;DHT22;71452;52.562;5.642;2023-09-30T05:00:55;13.30;73.50
81951;DHT22;71452;52.562;5.642;2023-09-30T05:03:24;13.30;73.50
81951;DHT22;71452;52.562;5.642;2023-09-30T05:05:56;13.30;73.50
81951;DHT22;71452;52.562;5.642;2023-09-30T05:08:26;13.30;73.60
81951;DHT22;71452;52.562;5.642;2023-09-30T05:10:55;13.30;73.60
81951;DHT22;71452;52.562;5.642;2023-09-30T05:13:24;13.30;73.60
81951;DHT22;71452;52.562;5.642;2023-09-30T05:15:53;13.30;73.70
81951;DHT22;71452;52.562;5.642;2023-09-30T05:18:22;13.30;73.70
81951;DHT22;71452;52.562;5.642;2023-09-30T05:20:51;13.30;73.60
81951;DHT22;71452;52.562;5.642;2023-09-30T05:23:23;13.30;73.70
81951;DHT22;71452;52.562;5.642;2023-09-30T05:25:52;13.30;73.70
81951;DHT22;71452;52.562;5.642;2023-09-30T05:28:21;13.30;73.70
81951;DHT22;71452;52.562;5.642;2023-09-30T05:30:50;13.30;73.80
81951;DHT22;71452;52.562;5.642;2023-09-30T05:33:19;13.30;73.80
81951;DHT22;71452;52.562;5.642;2023-09-30T05:35:48;13.30;73.70
81951;DHT22;71452;52.562;5.642;2023-09-30T05:38:17;13.30;73.70
81951;DHT22;71452;52.562;5.642;2023-09-30T05:40:49;13.30;73.80
81951;DHT22;71452;52.562;5.642;2023-09-30T05:43:18;13.40;73.80
81951;DHT22;71452;52.562;5.642;2023-09-30T05:45:47;13.40;73.80
81951;DHT22;71452;52.562;5.642;2023-09-30T05:48:21;13.30;73.90
81951;DHT22;71452;52.562;5.642;2023-09-30T05:50:50;13.40;73.90
81951;DHT22;71452;52.562;5.642;2023-09-30T05:53:19;13.50;74.00
81951;DHT22;71452;52.562;5.642;2023-09-30T05:55:51;13.50;74.10
81951;DHT22;71452;52.562;5.642;2023-09-30T05:58:20;13.50;74.20
81951;DHT22;71452;52.562;5.642;2023-09-30T06:00:49;13.50;74.30
81951;DHT22;71452;52.562;5.642;2023-09-30T06:03:19;13.50;74.20
81951;DHT22;71452;52.562;5.642;2023-09-30T06:05:49;13.60;74.10
81951;DHT22;71452;52.562;5.642;2023-09-30T06:08:18;13.60;74.20
81951;DHT22;71452;52.562;5.642;2023-09-30T06:10:47;13.60;74.20
81951;DHT22;71452;52.562;5.642;2023-09-30T06:13:18;13.70;74.30
81951;DHT22;71452;52.562;5.642;2023-09-30T06:15:47;13.70;74.20
81951;DHT22;71452;52.562;5.642;2023-09-30T06:18:16;13.70;74.20
81951;DHT22;71452;52.562;5.642;2023-09-30T06:20:45;13.70;74.10
81951;DHT22;71452;52.562;5.642;2023-09-30T06:23:15;13.80;74.00
81951;DHT22;71452;52.562;5.642;2023-09-30T06:25:44;13.80;74.10
81951;DHT22;71452;52.562;5.642;2023-09-30T06:28:13;13.80;74.10
81951;DHT22;71452;52.562;5.642;2023-09-30T06:30:46;13.80;74.20
81951;DHT22;71452;52.562;5.642;2023-09-30T06:33:21;13.90;74.30
81951;DHT22;71452;52.562;5.642;2023-09-30T06:35:50;13.90;74.30
81951;DHT22;71452;52.562;5.642;2023-09-30T06:38:19;13.90;74.30
81951;DHT22;71452;52.562;5.642;2023-09-30T06:40:48;13.90;74.30
81951;DHT22;71452;52.562;5.642;2023-09-30T06:43:17;14.00;74.40
81951;DHT22;71452;52.562;5.642;2023-09-30T06:45:49;14.10;74.30
81951;DHT22;71452;52.562;5.642;2023-09-30T06:48:18;14.30;74.00
81951;DHT22;71452;52.562;5.642;2023-09-30T06:50:48;14.40;73.90
81951;DHT22;71452;52.562;5.642;2023-09-30T06:53:19;14.50;73.90
81951;DHT22;71452;52.562;5.642;2023-09-30T06:55:49;14.60;73.50
81951;DHT22;71452;52.562;5.642;2023-09-30T06:58:19;14.80;73.30
81951;DHT22;71452;52.562;5.642;2023-09-30T07:00:52;15.00;73.00
81951;DHT22;71452;52.562;5.642;2023-09-30T07:03:21;15.10;72.60
81951;DHT22;71452;52.562;5.642;2023-09-30T07:05:50;15.20;72.10
81951;DHT22;71452;52.562;5.642;2023-09-30T07:08:20;15.20;72.00
81951;DHT22;71452;52.562;5.642;2023-09-30T07:10:49;15.20;72.10
81951;DHT22;71452;52.562;5.642;2023-09-30T07:13:18;15.10;72.30
81951;DHT22;71452;52.562;5.642;2023-09-30T07:15:47;15.20;72.40
81951;DHT22;71452;52.562;5.642;2023-09-30T07:18:19;15.40;72.20
81951;DHT22;71452;52.562;5.642;2023-09-30T07:20:50;15.60;71.80
81951;DHT22;71452;52.562;5.642;2023-09-30T07:23:20;15.80;71.50
81951;DHT22;71452;52.562;5.642;2023-09-30T07:25:49;16.00;71.20
81951;DHT22;71452;52.562;5.642;2023-09-30T07:28:18;16.30;70.90
81951;DHT22;71452;52.562;5.642;2023-09-30T07:30:47;16.50;70.50
81951;DHT22;71452;52.562;5.642;2023-09-30T07:33:18;16.70;70.00
81951;DHT22;71452;52.562;5.642;2023-09-30T07:35:48;16.90;69.60
81951;DHT22;71452;52.562;5.642;2023-09-30T07:38:17;17.00;69.50
81951;DHT22;71452;52.562;5.642;2023-09-30T07:40:46;17.20;69.10
81951;DHT22;71452;52.562;5.642;2023-09-30T07:43:15;17.50;68.90
81951;DHT22;71452;52.562;5.642;2023-09-30T07:45:46;17.60;68.60
81951;DHT22;71452;52.562;5.642;2023-09-30T07:48:15;17.80;68.30
81951;DHT22;71452;52.562;5.642;2023-09-30T07:50:47;18.00;68.20
81951;DHT22;71452;52.562;5.642;2023-09-30T07:53:16;18.20;67.90
81951;DHT22;71452;52.562;5.642;2023-09-30T07:55:45;18.30;67.60
81951;DHT22;71452;52.562;5.642;2023-09-30T07:58:14;18.50;67.30
81951;DHT22;71452;52.562;5.642;2023-09-30T08:00:43;18.60;67.10
81951;DHT22;71452;52.562;5.642;2023-09-30T08:03:14;18.60;66.90
81951;DHT22;71452;52.562;5.642;2023-09-30T08:05:43;18.60;66.80
81951;DHT22;71452;52.562;5.642;2023-09-30T08:08:15;18.60;66.90
81951;DHT22;71452;52.562;5.642;2023-09-30T08:10:44;18.60;66.80
81951;DHT22;71452;52.562;5.642;2023-09-30T08:13:14;18.50;67.10
81951;DHT22;71452;52.562;5.642;2023-09-30T08:15:43;18.50;67.10
81951;DHT22;71452;52.562;5.642;2023-09-30T08:18:12;18.40;67.70
81951;DHT22;71452;52.562;5.642;2023-09-30T08:20:41;18.40;68.00
81951;DHT22;71452;52.562;5.642;2023-09-30T08:23:10;18.40;68.20
81951;DHT22;71452;52.562;5.642;2023-09-30T08:25:42;18.30;68.30
81951;DHT22;71452;52.562;5.642;2023-09-30T08:28:12;18.30;68.30
81951;DHT22;71452;52.562;5.642;2023-09-30T08:30:42;18.20;68.40
81951;DHT22;71452;52.562;5.642;2023-09-30T08:33:12;18.20;68.20
81951;DHT22;71452;52.562;5.642;2023-09-30T08:35:42;18.10;68.70
81951;DHT22;71452;52.562;5.642;2023-09-30T08:38:11;18.10;68.90
81951;DHT22;71452;52.562;5.642;2023-09-30T08:40:44;18.10;69.00
81951;DHT22;71452;52.562;5.642;2023-09-30T08:43:14;18.10;69.00
81951;DHT22;71452;52.562;5.642;2023-09-30T08:45:47;18.20;69.20
81951;DHT22;71452;52.562;5.642;2023-09-30T08:48:18;18.20;69.20
81951;DHT22;71452;52.562;5.642;2023-09-30T08:50:48;18.30;69.20
81951;DHT22;71452;52.562;5.642;2023-09-30T08:53:20;18.40;69.10
81951;DHT22;71452;52.562;5.642;2023-09-30T08:55:53;18.40;69.00
81951;DHT22;71452;52.562;5.642;2023-09-30T08:58:27;18.40;69.10
81951;DHT22;71452;52.562;5.642;2023-09-30T09:00:56;18.50;68.80
81951;DHT22;71452;52.562;5.642;2023-09-30T09:03:28;18.50;68.90
81951;DHT22;71452;52.562;5.642;2023-09-30T09:05:58;18.50;69.10
81951;DHT22;71452;52.562;5.642;2023-09-30T09:08:27;18.60;68.90
81951;DHT22;71452;52.562;5.642;2023-09-30T09:11:00;18.60;68.90
81951;DHT22;71452;52.562;5.642;2023-09-30T09:13:46;18.70;68.70
81951;DHT22;71452;52.562;5.642;2023-09-30T09:16:16;18.70;68.90
81951;DHT22;71452;52.562;5.642;2023-09-30T09:18:46;18.80;68.70
81951;DHT22;71452;52.562;5.642;2023-09-30T09:21:16;18.80;68.80
81951;DHT22;71452;52.562;5.642;2023-09-30T09:23:47;18.90;68.80
81951;DHT22;71452;52.562;5.642;2023-09-30T09:26:26;19.00;68.70
81951;DHT22;71452;52.562;5.642;2023-09-30T09:28:58;19.10;68.50
81951;DHT22;71452;52.562;5.642;2023-09-30T09:31:28;19.20;68.60
81951;DHT22;71452;52.562;5.642;2023-09-30T09:33:58;19.30;68.40
81951;DHT22;71452;52.562;5.642;2023-09-30T09:36:38;19.30;68.40
81951;DHT22;71452;52.562;5.642;2023-09-30T09:39:08;19.40;68.60
81951;DHT22;71452;52.562;5.642;2023-09-30T09:41:52;19.50;68.50
81951;DHT22;71452;52.562;5.642;2023-09-30T09:44:24;19.50;68.30
81951;DHT22;71452;52.562;5.642;2023-09-30T09:46:53;19.60;68.30
81951;DHT22;71452;52.562;5.642;2023-09-30T09:49:22;19.70;68.00
81951;DHT22;71452;52.562;5.642;2023-09-30T09:51:55;19.70;67.10
81951;DHT22;71452;52.562;5.642;2023-09-30T09:54:25;19.70;67.40
81951;DHT22;71452;52.562;5.642;2023-09-30T09:56:59;19.70;66.90
81951;DHT22;71452;52.562;5.642;2023-09-30T09:59:29;19.80;66.90
81951;DHT22;71452;52.562;5.642;2023-09-30T10:01:59;19.90;66.10
81951;DHT22;71452;52.562;5.642;2023-09-30T10:04:29;19.90;66.30
81951;DHT22;71452;52.562;5.642;2023-09-30T10:06:59;19.90;65.30
81951;DHT22;71452;52.562;5.642;2023-09-30T10:09:31;20.00;65.40
81951;DHT22;71452;52.562;5.642;2023-09-30T10:12:05;20.00;64.90
81951;DHT22;71452;52.562;5.642;2023-09-30T10:14:34;20.00;64.70
81951;DHT22;71452;52.562;5.642;2023-09-30T10:17:04;20.10;65.10
81951;DHT22;71452;52.562;5.642;2023-09-30T10:19:33;20.30;64.70
81951;DHT22;71452;52.562;5.642;2023-09-30T10:22:20;20.30;64.00
81951;DHT22;71452;52.562;5.642;2023-09-30T10:24:49;20.50;63.70
81951;DHT22;71452;52.562;5.642;2023-09-30T10:27:34;20.50;63.10
81951;DHT22;71452;52.562;5.642;2023-09-30T10:30:08;20.60;63.20
81951;DHT22;71452;52.562;5.642;2023-09-30T10:33:10;20.60;62.40
81951;DHT22;71452;52.562;5.642;2023-09-30T10:35:45;20.60;61.60
81951;DHT22;71452;52.562;5.642;2023-09-30T10:38:37;20.50;61.50
81951;DHT22;71452;52.562;5.642;2023-09-30T10:41:07;20.60;61.00
81951;DHT22;71452;52.562;5.642;2023-09-30T10:43:41;20.60;60.90
81951;DHT22;71452;52.562;5.642;2023-09-30T10:46:31;20.70;60.60
81951;DHT22;71452;52.562;5.642;2023-09-30T10:49:31;20.70;60.50
81951;DHT22;71452;52.562;5.642;2023-09-30T10:52:04;20.60;59.70
81951;DHT22;71452;52.562;5.642;2023-09-30T10:54:34;20.50;60.00
81951;DHT22;71452;52.562;5.642;2023-09-30T10:57:03;20.40;60.20
81951;DHT22;71452;52.562;5.642;2023-09-30T10:59:35;20.30;60.40
81951;DHT22;71452;52.562;5.642;2023-09-30T11:02:18;20.30;60.50
81951;DHT22;71452;52.562;5.642;2023-09-30T11:04:47;20.10;60.80
81951;DHT22;71452;52.562;5.642;2023-09-30T11:07:21;20.10;61.20
81951;DHT22;71452;52.562;5.642;2023-09-30T11:09:53;20.10;61.10
81951;DHT22;71452;52.562;5.642;2023-09-30T11:12:22;20.10;61.10
81951;DHT22;71452;52.562;5.642;2023-09-30T11:15:02;20.00;61.20
81951;DHT22;71452;52.562;5.642;2023-09-30T11:17:31;20.00;61.10
81951;DHT22;71452;52.562;5.642;2023-09-30T11:20:00;20.00;61.20
81951;DHT22;71452;52.562;5.642;2023-09-30T11:22:32;20.00;61.30
81951;DHT22;71452;52.562;5.642;2023-09-30T11:25:01;20.00;61.20
81951;DHT22;71452;52.562;5.642;2023-09-30T11:27:30;20.10;61.50
81951;DHT22;71452;52.562;5.642;2023-09-30T11:30:02;20.30;61.60
81951;DHT22;71452;52.562;5.642;2023-09-30T11:32:34;20.50;61.30
81951;DHT22;71452;52.562;5.642;2023-09-30T11:35:08;20.70;60.80
81951;DHT22;71452;52.562;5.642;2023-09-30T11:37:41;20.80;60.20
81951;DHT22;71452;52.562;5.642;2023-09-30T11:40:12;21.00;60.10
81951;DHT22;71452;52.562;5.642;2023-09-30T11:42:42;21.10;59.70
81951;DHT22;71452;52.562;5.642;2023-09-30T11:45:34;21.10;59.40
81951;DHT22;71452;52.562;5.642;2023-09-30T11:48:17;21.20;57.00
81951;DHT22;71452;52.562;5.642;2023-09-30T11:50:47;21.20;57.40
81951;DHT22;71452;52.562;5.642;2023-09-30T11:53:16;21.10;57.30
81951;DHT22;71452;52.562;5.642;2023-09-30T11:55:46;21.10;56.70
81951;DHT22;71452;52.562;5.642;2023-09-30T11:58:15;21.10;56.80
81951;DHT22;71452;52.562;5.642;2023-09-30T12:00:48;21.00;57.10
81951;DHT22;71452;52.562;5.642;2023-09-30T12:03:17;20.90;56.90
81951;DHT22;71452;52.562;5.642;2023-09-30T12:05:46;20.80;57.10
81951;DHT22;71452;52.562;5.642;2023-09-30T12:08:15;20.80;57.70
81951;DHT22;71452;52.562;5.642;2023-09-30T12:10:45;20.90;58.00
81951;DHT22;71452;52.562;5.642;2023-09-30T12:13:15;21.00;58.20
81951;DHT22;71452;52.562;5.642;2023-09-30T12:15:44;21.10;57.70
81951;DHT22;71452;52.562;5.642;2023-09-30T12:18:16;21.20;57.30
81951;DHT22;71452;52.562;5.642;2023-09-30T12:20:49;21.30;57.40
81951;DHT22;71452;52.562;5.642;2023-09-30T12:23:18;21.30;56.80
81951;DHT22;71452;52.562;5.642;2023-09-30T12:25:48;21.20;56.00
81951;DHT22;71452;52.562;5.642;2023-09-30T12:28:17;21.20;55.90
81951;DHT22;71452;52.562;5.642;2023-09-30T12:30:46;21.10;56.10
81951;DHT22;71452;52.562;5.642;2023-09-30T12:33:17;21.20;56.20
81951;DHT22;71452;52.562;5.642;2023-09-30T12:35:46;21.40;55.70
81951;DHT22;71452;52.562;5.642;2023-09-30T12:38:15;21.40;55.80
81951;DHT22;71452;52.562;5.642;2023-09-30T12:40:45;21.40;56.00
81951;DHT22;71452;52.562;5.642;2023-09-30T12:43:14;21.30;56.20
81951;DHT22;71452;52.562;5.642;2023-09-30T12:45:43;21.30;56.70
81951;DHT22;71452;52.562;5.642;2023-09-30T12:48:12;21.20;56.80
81951;DHT22;71452;52.562;5.642;2023-09-30T12:50:45;21.10;56.80
81951;DHT22;71452;52.562;5.642;2023-09-30T12:53:14;21.00;57.10
81951;DHT22;71452;52.562;5.642;2023-09-30T12:55:43;21.00;57.50
81951;DHT22;71452;52.562;5.642;2023-09-30T12:58:13;21.00;57.60
81951;DHT22;71452;52.562;5.642;2023-09-30T13:00:42;21.00;57.80
81951;DHT22;71452;52.562;5.642;2023-09-30T13:03:11;20.90;57.90
81951;DHT22;71452;52.562;5.642;2023-09-30T13:05:41;20.90;57.90
81951;DHT22;71452;52.562;5.642;2023-09-30T13:08:13;20.90;58.10
81951;DHT22;71452;52.562;5.642;2023-09-30T13:10:42;20.90;58.20
81951;DHT22;71452;52.562;5.642;2023-09-30T13:13:11;20.90;58.00
81951;DHT22;71452;52.562;5.642;2023-09-30T13:15:40;20.90;58.00
81951;DHT22;71452;52.562;5.642;2023-09-30T13:18:09;20.90;58.20
81951;DHT22;71452;52.562;5.642;2023-09-30T13:20:39;20.90;58.40
81951;DHT22;71452;52.562;5.642;2023-09-30T13:23:08;20.90;58.50
81951;DHT22;71452;52.562;5.642;2023-09-30T13:25:39;20.90;58.60
81951;DHT22;71452;52.562;5.642;2023-09-30T13:28:08;20.80;58.80
81951;DHT22;71452;52.562;5.642;2023-09-30T13:30:37;20.80;58.90
81951;DHT22;71452;52.562;5.642;2023-09-30T13:33:06;20.80;58.70
81951;DHT22;71452;52.562;5.642;2023-09-30T13:35:35;20.80;58.80
81951;DHT22;71452;52.562;5.642;2023-09-30T13:38:05;20.80;58.90
81951;DHT22;71452;52.562;5.642;2023-09-30T13:40:34;20.80;58.90
81951;DHT22;71452;52.562;5.642;2023-09-30T13:43:06;20.80;58.70
81951;DHT22;71452;52.562;5.642;2023-09-30T13:45:35;20.80;58.00
81951;DHT22;71452;52.562;5.642;2023-09-30T13:48:05;20.70;57.90
81951;DHT22;71452;52.562;5.642;2023-09-30T13:50:35;20.60;57.70
81951;DHT22;71452;52.562;5.642;2023-09-30T13:53:04;20.60;58.00
81951;DHT22;71452;52.562;5.642;2023-09-30T13:55:37;20.50;58.00
81951;DHT22;71452;52.562;5.642;2023-09-30T13:58:09;20.50;58.10
81951;DHT22;71452;52.562;5.642;2023-09-30T14:00:38;20.50;58.30
81951;DHT22;71452;52.562;5.642;2023-09-30T14:03:08;20.40;58.50
81951;DHT22;71452;52.562;5.642;2023-09-30T14:05:37;20.40;58.60
81951;DHT22;71452;52.562;5.642;2023-09-30T14:08:06;20.40;58.70
81951;DHT22;71452;52.562;5.642;2023-09-30T14:10:36;20.30;58.70
81951;DHT22;71452;52.562;5.642;2023-09-30T14:13:05;20.30;58.70
81951;DHT22;71452;52.562;5.642;2023-09-30T14:15:37;20.30;58.70
81951;DHT22;71452;52.562;5.642;2023-09-30T14:18:06;20.30;58.70
81951;DHT22;71452;52.562;5.642;2023-09-30T14:20:35;20.30;58.80
81951;DHT22;71452;52.562;5.642;2023-09-30T14:23:04;20.30;58.90
81951;DHT22;71452;52.562;5.642;2023-09-30T14:25:33;20.20;58.90
81951;DHT22;71452;52.562;5.642;2023-09-30T14:28:02;20.10;59.10
81951;DHT22;71452;52.562;5.642;2023-09-30T14:30:31;20.10;59.10
81951;DHT22;71452;52.562;5.642;2023-09-30T14:33:04;20.10;59.00
81951;DHT22;71452;52.562;5.642;2023-09-30T14:35:33;20.10;58.90
81951;DHT22;71452;52.562;5.642;2023-09-30T14:38:03;20.10;59.00
81951;DHT22;71452;52.562;5.642;2023-09-30T14:40:36;20.10;59.10
81951;DHT22;71452;52.562;5.642;2023-09-30T14:43:05;20.10;59.10
81951;DHT22;71452;52.562;5.642;2023-09-30T14:45:39;20.00;59.20
81951;DHT22;71452;52.562;5.642;2023-09-30T14:48:11;20.00;59.20
81951;DHT22;71452;52.562;5.642;2023-09-30T14:50:48;20.00;59.40
81951;DHT22;71452;52.562;5.642;2023-09-30T14:53:18;20.10;59.40
81951;DHT22;71452;52.562;5.642;2023-09-30T14:55:47;20.10;59.60
81951;DHT22;71452;52.562;5.642;2023-09-30T14:58:16;20.10;59.60
81951;DHT22;71452;52.562;5.642;2023-09-30T15:00:45;20.20;59.70
81951;DHT22;71452;52.562;5.642;2023-09-30T15:03:17;20.30;59.70
81951;DHT22;71452;52.562;5.642;2023-09-30T15:05:47;20.30;59.70
81951;DHT22;71452;52.562;5.642;2023-09-30T15:08:16;20.30;59.80
81951;DHT22;71452;52.562;5.642;2023-09-30T15:10:45;20.30;59.90
81951;DHT22;71452;52.562;5.642;2023-09-30T15:13:14;20.30;60.00
81951;DHT22;71452;52.562;5.642;2023-09-30T15:15:43;20.30;59.80
81951;DHT22;71452;52.562;5.642;2023-09-30T15:18:12;20.30;59.90
81951;DHT22;71452;52.562;5.642;2023-09-30T15:20:44;20.30;59.90
81951;DHT22;71452;52.562;5.642;2023-09-30T15:23:13;20.30;60.00
81951;DHT22;71452;52.562;5.642;2023-09-30T15:25:43;20.30;60.00
81951;DHT22;71452;52.562;5.642;2023-09-30T15:28:12;20.30;60.10
81951;DHT22;71452;52.562;5.642;2023-09-30T15:30:42;20.20;60.30
81951;DHT22;71452;52.562;5.642;2023-09-30T15:33:11;20.10;60.30
81951;DHT22;71452;52.562;5.642;2023-09-30T15:35:40;20.10;60.50
81951;DHT22;71452;52.562;5.642;2023-09-30T15:38:11;20.10;60.50
81951;DHT22;71452;52.562;5.642;2023-09-30T15:40:51;20.10;60.60
81951;DHT22;71452;52.562;5.642;2023-09-30T15:43:24;20.10;60.70
81951;DHT22;71452;52.562;5.642;2023-09-30T15:45:53;20.10;60.80
81951;DHT22;71452;52.562;5.642;2023-09-30T15:48:22;20.10;60.80
81951;DHT22;71452;52.562;5.642;2023-09-30T15:50:51;20.10;60.80